sensor_id;sensor_type;location;lat;lon;timestamp;P1;durP1;ratioP1;P2;durP2;ratioP2
9506;SDS011;4791;47.528;9.372;2022-09-02T00:13:25;6.97;;;6.00;;
9506;SDS011;4791;47.528;9.372;2022-09-02T00:28:26;6.55;;;5.80;;
9506;SDS011;4791;47.528;9.372;2022-09-02T00:43:43;7.85;;;5.47;;
9506;SDS011;4791;47.528;9.372;2022-09-02T00:58:46;8.13;;;6.05;;
9506;SDS011;4791;47.528;9.372;2022-09-02T01:13:47;6.97;;;6.20;;
9506;SDS011;4791;47.528;9.372;2022-09-02T01:28:47;9.25;;;5.97;;
9506;SDS011;4791;47.528;9.372;2022-09-02T01:43:48;7.68;;;5.95;;
9506;SDS011;4791;47.528;9.372;2022-09-02T01:58:48;7.38;;;6.65;;
9506;SDS011;4791;47.528;9.372;2022-09-02T02:13:49;6.47;;;5.88;;
9506;SDS011;4791;47.528;9.372;2022-09-02T02:28:49;6.47;;;5.95;;
9506;SDS011;4791;47.528;9.372;2022-09-02T02:43:50;6.90;;;6.22;;
9506;SDS011;4791;47.528;9.372;2022-09-02T02:58:50;7.18;;;6.47;;
9506;SDS011;4791;47.528;9.372;2022-09-02T03:13:51;6.45;;;5.88;;
9506;SDS011;4791;47.528;9.372;2022-09-02T03:28:54;7.07;;;6.30;;
9506;SDS011;4791;47.528;9.372;2022-09-02T03:43:58;9.48;;;6.50;;
9506;SDS011;4791;47.528;9.372;2022-09-02T03:59:00;7.15;;;6.55;;
9506;SDS011;4791;47.528;9.372;2022-09-02T04:14:01;6.93;;;6.15;;
9506;SDS011;4791;47.528;9.372;2022-09-02T04:29:04;9.45;;;7.05;;
9506;SDS011;4791;47.528;9.372;2022-09-02T04:44:05;7.53;;;6.35;;
9506;SDS011;4791;47.528;9.372;2022-09-02T04:59:11;21.92;;;6.95;;
9506;SDS011;4791;47.528;9.372;2022-09-02T05:14:11;7.53;;;6.20;;
9506;SDS011;4791;47.528;9.372;2022-09-02T05:29:14;7.43;;;6.72;;
9506;SDS011;4791;47.528;9.372;2022-09-02T05:44:19;7.68;;;6.53;;
9506;SDS011;4791;47.528;9.372;2022-09-02T05:59:20;8.25;;;5.20;;
9506;SDS011;4791;47.528;9.372;2022-09-02T06:14:24;9.80;;;8.48;;
9506;SDS011;4791;47.528;9.372;2022-09-02T06:44:28;7.78;;;5.43;;
9506;SDS011;4791;47.528;9.372;2022-09-02T06:59:29;9.35;;;5.88;;
9506;SDS011;4791;47.528;9.372;2022-09-02T07:14:31;6.97;;;5.88;;
9506;SDS011;4791;47.528;9.372;2022-09-02T07:29:38;7.55;;;5.25;;
9506;SDS011;4791;47.528;9.372;2022-09-02T07:44:43;6.82;;;5.55;;
9506;SDS011;4791;47.528;9.372;2022-09-02T07:59:48;6.95;;;5.72;;
9506;SDS011;4791;47.528;9.372;2022-09-02T08:14:48;7.22;;;6.53;;
9506;SDS011;4791;47.528;9.372;2022-09-02T08:29:49;7.85;;;6.50;;
9506;SDS011;4791;47.528;9.372;2022-09-02T08:44:52;6.30;;;5.53;;
9506;SDS011;4791;47.528;9.372;2022-09-02T08:59:56;8.23;;;6.15;;
9506;SDS011;4791;47.528;9.372;2022-09-02T09:30:15;5.97;;;4.70;;
9506;SDS011;4791;47.528;9.372;2022-09-02T10:00:31;4.30;;;3.85;;
9506;SDS011;4791;47.528;9.372;2022-09-02T10:46:11;5.45;;;4.93;;
9506;SDS011;4791;47.528;9.372;2022-09-02T11:01:18;4.57;;;4.18;;
9506;SDS011;4791;47.528;9.372;2022-09-02T11:16:26;7.63;;;4.38;;
9506;SDS011;4791;47.528;9.372;2022-09-02T11:31:43;4.20;;;3.80;;
9506;SDS011;4791;47.528;9.372;2022-09-02T12:02:01;4.55;;;3.47;;
9506;SDS011;4791;47.528;9.372;2022-09-02T12:17:05;3.92;;;3.10;;
9506;SDS011;4791;47.528;9.372;2022-09-02T12:32:07;4.07;;;3.05;;
9506;SDS011;4791;47.528;9.372;2022-09-02T13:33:24;2.47;;;1.77;;
9506;SDS011;4791;47.528;9.372;2022-09-02T13:48:25;2.20;;;1.73;;
9506;SDS011;4791;47.528;9.372;2022-09-02T14:03:27;2.40;;;1.92;;
9506;SDS011;4791;47.528;9.372;2022-09-02T14:18:53;3.38;;;2.00;;
9506;SDS011;4791;47.528;9.372;2022-09-02T14:34:29;2.75;;;1.90;;
9506;SDS011;4791;47.528;9.372;2022-09-02T14:49:32;4.17;;;2.23;;
9506;SDS011;4791;47.528;9.372;2022-09-02T15:04:36;2.65;;;2.25;;
9506;SDS011;4791;47.528;9.372;2022-09-02T15:19:38;3.22;;;2.28;;
9506;SDS011;4791;47.528;9.372;2022-09-02T15:34:41;3.00;;;2.30;;
9506;SDS011;4791;47.528;9.372;2022-09-02T15:49:42;3.53;;;2.60;;
9506;SDS011;4791;47.528;9.372;2022-09-02T16:04:42;3.17;;;2.80;;
9506;SDS011;4791;47.528;9.372;2022-09-02T16:19:43;3.67;;;2.83;;
9506;SDS011;4791;47.528;9.372;2022-09-02T16:34:43;4.32;;;2.58;;
9506;SDS011;4791;47.528;9.372;2022-09-02T16:49:45;4.15;;;3.35;;
9506;SDS011;4791;47.528;9.372;2022-09-02T17:04:46;9.55;;;3.72;;
9506;SDS011;4791;47.528;9.372;2022-09-02T17:19:46;6.57;;;3.38;;
9506;SDS011;4791;47.528;9.372;2022-09-02T17:34:49;5.60;;;3.70;;
9506;SDS011;4791;47.528;9.372;2022-09-02T17:49:54;3.80;;;3.43;;
9506;SDS011;4791;47.528;9.372;2022-09-02T18:50:44;6.05;;;4.05;;
9506;SDS011;4791;47.528;9.372;2022-09-02T19:05:49;7.07;;;4.82;;
9506;SDS011;4791;47.528;9.372;2022-09-02T19:20:50;6.22;;;5.10;;
9506;SDS011;4791;47.528;9.372;2022-09-02T19:35:54;6.22;;;5.05;;
9506;SDS011;4791;47.528;9.372;2022-09-02T19:50:57;9.65;;;5.93;;
9506;SDS011;4791;47.528;9.372;2022-09-02T20:05:59;7.53;;;5.93;;
9506;SDS011;4791;47.528;9.372;2022-09-02T20:21:00;7.68;;;6.78;;
9506;SDS011;4791;47.528;9.372;2022-09-02T20:36:10;7.80;;;6.60;;
9506;SDS011;4791;47.528;9.372;2022-09-02T21:21:27;7.78;;;6.97;;
9506;SDS011;4791;47.528;9.372;2022-09-02T21:36:33;8.52;;;7.60;;
9506;SDS011;4791;47.528;9.372;2022-09-02T21:51:35;7.95;;;7.25;;
9506;SDS011;4791;47.528;9.372;2022-09-02T22:06:44;11.48;;;8.40;;
9506;SDS011;4791;47.528;9.372;2022-09-02T22:21:47;9.98;;;8.13;;
9506;SDS011;4791;47.528;9.372;2022-09-02T22:36:53;9.93;;;9.00;;
9506;SDS011;4791;47.528;9.372;2022-09-02T23:07:45;8.23;;;7.43;;
